createdAt,value
2018-09-05T00:00:10.531Z,19.06
2018-09-05T00:02:39.530Z,19.01
2018-09-05T00:05:08.870Z,18.98
2018-09-05T00:07:37.771Z,18.94
2018-09-05T00:10:06.758Z,18.94
2018-09-05T00:12:35.917Z,18.94
2018-09-05T00:15:04.721Z,18.92
2018-09-05T00:17:33.933Z,18.86
2018-09-05T00:20:03.204Z,18.80
2018-09-05T00:22:32.297Z,18.78
2018-09-05T00:25:01.118Z,18.77
2018-09-05T00:27:59.420Z,18.72
2018-09-05T00:30:31.728Z,18.66
2018-09-05T00:33:01.118Z,18.58
2018-09-05T00:35:30.178Z,18.53
2018-09-05T00:37:58.951Z,18.50
2018-09-05T00:40:28.284Z,18.50
2018-09-05T00:42:57.027Z,18.50
2018-09-05T00:45:26.714Z,18.48
2018-09-05T00:47:55.535Z,18.47
2018-09-05T00:50:24.551Z,18.45
2018-09-05T00:52:53.571Z,18.41
2018-09-05T00:55:22.335Z,18.36
2018-09-05T00:57:51.164Z,18.30
2018-09-05T01:00:21.001Z,18.26
2018-09-05T01:02:50.768Z,18.23
2018-09-05T01:05:20.538Z,18.21
2018-09-05T01:07:50.308Z,18.18
2018-09-05T01:10:20.078Z,18.13
2018-09-05T01:12:49.280Z,18.11
2018-09-05T01:15:18.419Z,18.11
2018-09-05T01:17:47.593Z,18.08
2018-09-05T01:20:16.950Z,18.02
2018-09-05T01:22:45.928Z,17.99
2018-09-05T01:25:15.039Z,17.98
2018-09-05T01:27:44.336Z,17.98
2018-09-05T01:30:14.163Z,17.95
2018-09-05T01:32:42.938Z,17.95
2018-09-05T01:35:11.741Z,17.91
2018-09-05T01:37:41.035Z,17.84
2018-09-05T01:40:16.683Z,17.81
2018-09-05T01:42:45.547Z,17.78
2018-09-05T01:45:14.616Z,17.76
2018-09-05T01:47:43.770Z,17.75
2018-09-05T01:50:12.602Z,17.72
2018-09-05T01:52:41.388Z,17.67
2018-09-05T01:55:10.185Z,17.65
2018-09-05T01:57:38.929Z,17.62
2018-09-05T02:00:11.767Z,17.60
2018-09-05T02:02:40.904Z,17.56
2018-09-05T02:05:09.927Z,17.56
2018-09-05T02:07:38.674Z,17.55
2018-09-05T02:10:07.436Z,17.53
2018-09-05T02:12:36.745Z,17.52
2018-09-05T02:15:05.818Z,17.49
2018-09-05T02:17:35.354Z,17.46
2018-09-05T02:20:04.744Z,17.44
2018-09-05T02:22:34.128Z,17.43
2018-09-05T02:25:02.938Z,17.39
2018-09-05T02:27:32.043Z,17.32
2018-09-05T02:30:01.131Z,17.27
2018-09-05T02:32:29.927Z,17.23
2018-09-05T02:34:58.726Z,17.23
2018-09-05T02:37:28.103Z,17.20
2018-09-05T02:39:56.887Z,17.19
2018-09-05T02:42:25.687Z,17.17
2018-09-05T02:44:55.118Z,17.14
2018-09-05T02:47:24.909Z,17.09
2018-09-05T02:49:55.252Z,17.05
2018-09-05T02:52:24.451Z,17.03
2018-09-05T02:54:53.325Z,17.01
2018-09-05T02:57:22.287Z,17.00
2018-09-05T02:59:51.353Z,16.96
2018-09-05T03:02:20.176Z,16.94
2018-09-05T03:04:49.257Z,16.91
2018-09-05T03:07:18.007Z,16.87
2018-09-05T03:09:47.068Z,16.83
2018-09-05T03:12:21.033Z,16.78
2018-09-05T03:14:51.058Z,16.72
2018-09-05T03:17:20.427Z,16.68
2018-09-05T03:19:49.158Z,16.65
2018-09-05T03:22:17.913Z,16.60
2018-09-05T03:24:46.946Z,16.59
2018-09-05T03:27:16.439Z,16.56
2018-09-05T03:29:45.238Z,16.53
2018-09-05T03:32:15.036Z,16.50
2018-09-05T03:34:43.831Z,16.47
2018-09-05T03:37:12.674Z,16.42
2018-09-05T03:39:42.071Z,16.41
2018-09-05T03:42:10.856Z,16.40
2018-09-05T03:44:39.614Z,16.38
2018-09-05T03:47:09.039Z,16.34
2018-09-05T03:49:38.052Z,16.31
2018-09-05T03:52:07.158Z,16.32
2018-09-05T03:54:35.963Z,16.24
2018-09-05T03:57:04.704Z,16.20
2018-09-05T03:59:33.549Z,16.15
2018-09-05T04:02:02.360Z,16.15
2018-09-05T04:04:31.349Z,16.14
2018-09-05T04:07:00.402Z,16.12
2018-09-05T04:09:29.110Z,16.11
2018-09-05T04:11:57.994Z,16.11
2018-09-05T04:14:27.035Z,16.08
2018-09-05T04:16:55.873Z,16.07
2018-09-05T04:19:24.696Z,16.05
2018-09-05T04:21:53.847Z,16.04
2018-09-05T04:24:22.593Z,16.04
2018-09-05T04:26:51.634Z,16.03
2018-09-05T04:29:20.960Z,15.99
2018-09-05T04:31:49.816Z,15.94
2018-09-05T04:34:18.647Z,15.90
2018-09-05T04:36:47.809Z,15.89
2018-09-05T04:39:16.825Z,15.81
2018-09-05T04:41:45.684Z,15.75
2018-09-05T04:44:14.484Z,15.74
2018-09-05T04:46:47.742Z,15.73
2018-09-05T04:49:17.931Z,15.72
2018-09-05T04:51:46.678Z,15.71
2018-09-05T04:54:15.502Z,15.69
2018-09-05T04:56:44.642Z,15.64
2018-09-05T04:59:14.106Z,15.63
2018-09-05T05:01:43.695Z,15.64
2018-09-05T05:04:12.782Z,15.64
2018-09-05T05:06:42.069Z,15.61
2018-09-05T05:09:12.615Z,15.61
2018-09-05T05:11:42.092Z,15.61
2018-09-05T05:14:11.929Z,15.59
2018-09-05T05:16:40.911Z,15.58
2018-09-05T05:19:09.655Z,15.58
2018-09-05T05:21:38.770Z,15.59
2018-09-05T05:24:08.018Z,15.53
2018-09-05T05:26:37.210Z,15.48
2018-09-05T05:29:05.939Z,15.43
2018-09-05T05:31:35.133Z,15.41
2018-09-05T05:34:04.164Z,15.36
2018-09-05T05:36:32.886Z,15.35
2018-09-05T05:39:02.606Z,15.35
2018-09-05T05:41:34.331Z,15.38
2018-09-05T05:44:03.487Z,15.36
2018-09-05T05:46:32.442Z,15.40
2018-09-05T05:49:01.171Z,15.47
2018-09-05T05:51:29.893Z,15.52
2018-09-05T05:53:58.575Z,15.56
2018-09-05T05:56:27.601Z,15.60
2018-09-05T05:58:56.858Z,15.63
2018-09-05T06:01:25.937Z,15.66
2018-09-05T06:03:54.664Z,15.71
2018-09-05T06:06:23.431Z,15.75
2018-09-05T06:08:52.654Z,15.78
2018-09-05T06:11:21.457Z,15.77
2018-09-05T06:13:50.519Z,15.81
2018-09-05T06:16:19.463Z,15.83
2018-09-05T06:18:48.239Z,15.88
2018-09-05T06:21:17.073Z,15.91
2018-09-05T06:23:46.463Z,15.93
2018-09-05T06:26:15.243Z,15.98
2018-09-05T06:28:44.286Z,16.07
2018-09-05T06:31:13.247Z,16.15
2018-09-05T06:33:41.820Z,16.24
2018-09-05T06:36:10.590Z,16.37
2018-09-05T06:38:39.602Z,16.42
2018-09-05T06:41:09.142Z,16.52
2018-09-05T06:43:37.866Z,16.63
2018-09-05T06:46:06.896Z,16.67
2018-09-05T06:48:37.362Z,16.77
2018-09-05T06:51:07.381Z,16.85
2018-09-05T06:53:38.233Z,16.94
2018-09-05T06:56:06.965Z,17.05
2018-09-05T06:58:37.319Z,17.18
2018-09-05T07:01:06.133Z,17.31
2018-09-05T07:03:35.335Z,17.42
2018-09-05T07:06:04.088Z,17.51
2018-09-05T07:08:33.080Z,17.62
2018-09-05T07:11:01.887Z,17.70
2018-09-05T07:13:31.008Z,17.84
2018-09-05T07:15:59.882Z,17.94
2018-09-05T07:18:29.041Z,18.00
2018-09-05T07:21:05.684Z,18.10
2018-09-05T07:23:27.232Z,18.26
2018-09-05T07:25:55.981Z,18.32
2018-09-05T07:28:24.800Z,18.39
2018-09-05T07:30:53.652Z,18.49
2018-09-05T07:33:22.280Z,18.58
2018-09-05T07:35:51.367Z,18.73
2018-09-05T07:38:20.391Z,18.80
2018-09-05T07:40:49.179Z,18.91
2018-09-05T07:43:18.206Z,19.05
2018-09-05T07:45:47.231Z,19.13
2018-09-05T07:48:16.370Z,19.23
2018-09-05T07:50:45.199Z,19.37
2018-09-05T07:53:13.863Z,19.51
2018-09-05T07:55:42.843Z,19.64
2018-09-05T07:58:11.599Z,19.76
2018-09-05T08:00:40.573Z,19.86
2018-09-05T08:03:09.776Z,20.01
2018-09-05T08:05:38.527Z,20.14
2018-09-05T08:08:07.248Z,20.31
2018-09-05T08:10:36.343Z,20.44
2018-09-05T08:13:05.587Z,20.59
2018-09-05T08:15:34.703Z,20.72
2018-09-05T08:18:03.999Z,20.80
2018-09-05T08:20:32.712Z,20.86
2018-09-05T08:23:01.741Z,20.98
2018-09-05T08:25:30.785Z,21.09
2018-09-05T08:27:59.479Z,21.24
2018-09-05T08:30:28.285Z,21.39
2018-09-05T08:32:57.220Z,21.47
2018-09-05T08:35:26.213Z,21.59
2018-09-05T08:37:55.370Z,21.66
2018-09-05T08:40:24.694Z,21.77
2018-09-05T08:42:53.750Z,21.90
2018-09-05T08:45:22.693Z,21.99
2018-09-05T08:47:51.633Z,22.14
2018-09-05T08:50:20.559Z,22.31
2018-09-05T08:52:49.570Z,22.41
2018-09-05T08:55:18.448Z,22.53
2018-09-05T08:57:47.685Z,22.66
2018-09-05T09:00:16.374Z,22.72
2018-09-05T09:02:45.134Z,22.75
2018-09-05T09:05:14.123Z,22.90
2018-09-05T09:07:43.190Z,23.06
2018-09-05T09:10:12.521Z,23.21
2018-09-05T09:12:41.837Z,23.36
2018-09-05T09:15:10.698Z,23.52
2018-09-05T09:17:39.424Z,23.61
2018-09-05T09:20:08.254Z,23.78
2018-09-05T09:22:37.634Z,23.96
2018-09-05T09:25:06.354Z,24.00
2018-09-05T09:27:35.177Z,24.10
2018-09-05T09:30:04.449Z,24.23
2018-09-05T09:32:33.468Z,24.39
2018-09-05T09:35:02.829Z,24.52
2018-09-05T09:37:31.818Z,24.65
2018-09-05T09:40:00.568Z,24.82
2018-09-05T09:42:29.297Z,25.04
2018-09-05T09:44:58.080Z,25.25
2018-09-05T09:47:27.569Z,25.42
2018-09-05T09:49:57.129Z,25.59
2018-09-05T09:52:25.840Z,25.79
2018-09-05T09:54:54.572Z,25.93
2018-09-05T09:57:23.349Z,25.84
2018-09-05T09:59:52.326Z,25.82
2018-09-05T10:02:26.323Z,25.84
2018-09-05T10:05:00.540Z,25.96
2018-09-05T10:07:34.712Z,26.03
2018-09-05T10:10:08.712Z,26.05
2018-09-05T10:12:47.336Z,26.11
2018-09-05T10:15:22.333Z,26.28
2018-09-05T10:17:56.186Z,26.35
2018-09-05T10:20:24.913Z,26.36
2018-09-05T10:22:54.040Z,26.50
2018-09-05T10:25:22.719Z,26.70
2018-09-05T10:27:51.791Z,26.96
2018-09-05T10:30:20.536Z,27.18
2018-09-05T10:32:49.577Z,27.33
2018-09-05T10:35:19.235Z,27.52
2018-09-05T10:37:48.421Z,27.77
2018-09-05T10:40:17.444Z,28.03
2018-09-05T10:42:46.937Z,28.10
2018-09-05T10:45:15.663Z,28.07
2018-09-05T10:47:44.619Z,28.22
2018-09-05T10:50:13.699Z,28.50
2018-09-05T10:52:42.431Z,28.63
2018-09-05T10:55:11.888Z,28.76
2018-09-05T10:57:40.631Z,29.00
2018-09-05T11:00:09.861Z,29.12
2018-09-05T11:02:38.638Z,29.24
2018-09-05T11:05:07.435Z,29.43
2018-09-05T11:07:36.203Z,29.68
2018-09-05T11:10:04.935Z,30.03
2018-09-05T11:12:34.024Z,30.22
2018-09-05T11:15:06.502Z,30.15
2018-09-05T11:17:35.673Z,30.22
2018-09-05T11:20:04.866Z,30.41
2018-09-05T11:22:33.825Z,30.37
2018-09-05T11:25:02.821Z,30.21
2018-09-05T11:27:31.694Z,30.29
2018-09-05T11:30:00.721Z,30.41
2018-09-05T11:32:29.490Z,30.75
2018-09-05T11:34:59.368Z,31.02
2018-09-05T11:37:28.726Z,31.04
2018-09-05T11:39:57.689Z,30.90
2018-09-05T11:42:26.405Z,31.05
2018-09-05T11:44:55.320Z,31.13
2018-09-05T11:47:24.062Z,31.21
2018-09-05T11:49:52.805Z,31.15
2018-09-05T11:52:22.442Z,31.08
2018-09-05T11:54:51.552Z,31.14
2018-09-05T11:57:20.624Z,31.15
2018-09-05T11:59:49.407Z,31.33
2018-09-05T12:02:18.828Z,31.42
2018-09-05T12:04:48.167Z,31.62
2018-09-05T12:07:16.998Z,31.39
2018-09-05T12:09:45.735Z,31.48
2018-09-05T12:12:14.623Z,31.46
2018-09-05T12:14:43.605Z,31.22
2018-09-05T12:17:13.041Z,31.06
2018-09-05T12:19:42.083Z,31.26
2018-09-05T12:22:10.845Z,31.63
2018-09-05T12:24:40.049Z,32.00
2018-09-05T12:27:09.336Z,32.35
2018-09-05T12:29:38.238Z,32.38
2018-09-05T12:32:07.330Z,32.40
2018-09-05T12:34:36.778Z,32.33
2018-09-05T12:37:05.781Z,32.33
2018-09-05T12:39:34.868Z,32.45
2018-09-05T12:42:03.808Z,32.56
2018-09-05T12:44:33.127Z,32.57
2018-09-05T12:47:02.109Z,32.66
2018-09-05T12:49:30.904Z,32.53
2018-09-05T12:51:59.614Z,32.69
2018-09-05T12:54:28.667Z,32.89
2018-09-05T12:56:57.730Z,32.89
2018-09-05T12:59:26.891Z,32.88
2018-09-05T13:01:56.050Z,32.87
2018-09-05T13:04:25.147Z,33.06
2018-09-05T13:06:54.496Z,33.30
2018-09-05T13:09:23.543Z,33.46
2018-09-05T13:11:52.594Z,33.33
2018-09-05T13:14:21.907Z,33.31
2018-09-05T13:16:52.182Z,33.35
2018-09-05T13:19:21.352Z,33.66
2018-09-05T13:21:50.544Z,33.84
2018-09-05T13:24:20.301Z,33.85
2018-09-05T13:26:49.337Z,34.07
2018-09-05T13:29:18.353Z,34.10
2018-09-05T13:31:47.321Z,33.96
2018-09-05T13:34:16.368Z,33.97
2018-09-05T13:36:45.493Z,34.07
2018-09-05T13:39:14.481Z,34.09
2018-09-05T13:41:43.458Z,34.09
2018-09-05T13:44:12.155Z,34.01
2018-09-05T13:46:41.208Z,33.89
2018-09-05T13:49:09.904Z,33.78
2018-09-05T13:51:39.024Z,33.95
2018-09-05T13:54:08.505Z,33.96
2018-09-05T13:56:37.640Z,34.02
2018-09-05T13:59:06.931Z,33.96
2018-09-05T14:01:36.011Z,33.54
2018-09-05T14:04:04.760Z,33.26
2018-09-05T14:06:33.812Z,33.12
2018-09-05T14:09:02.952Z,33.10
2018-09-05T14:11:31.680Z,33.15
2018-09-05T14:14:01.003Z,33.13
2018-09-05T14:16:29.722Z,33.05
2018-09-05T14:18:58.465Z,33.09
2018-09-05T14:21:27.417Z,33.22
2018-09-05T14:23:56.999Z,33.53
2018-09-05T14:26:25.783Z,33.71
2018-09-05T14:28:54.585Z,33.58
2018-09-05T14:31:23.824Z,33.62
2018-09-05T14:33:52.638Z,33.66
2018-09-05T14:36:21.392Z,33.74
2018-09-05T14:38:50.084Z,33.64
2018-09-05T14:41:19.032Z,33.45
2018-09-05T14:43:47.795Z,33.32
2018-09-05T14:46:17.080Z,33.22
2018-09-05T14:48:45.772Z,33.04
2018-09-05T14:51:14.736Z,32.84
2018-09-05T14:53:43.469Z,32.87
2018-09-05T14:56:12.160Z,32.99
2018-09-05T14:58:40.843Z,32.98
2018-09-05T15:01:09.947Z,32.84
2018-09-05T15:03:38.728Z,32.60
2018-09-05T15:06:07.954Z,32.73
2018-09-05T15:08:36.984Z,32.82
2018-09-05T15:11:05.990Z,32.83
2018-09-05T15:13:34.739Z,32.40
2018-09-05T15:16:03.430Z,32.35
2018-09-05T15:18:32.408Z,32.17
2018-09-05T15:21:01.439Z,32.02
2018-09-05T15:23:30.180Z,31.60
2018-09-05T15:25:59.014Z,31.69
2018-09-05T15:28:28.212Z,31.82
2018-09-05T15:30:56.931Z,31.82
2018-09-05T15:33:25.995Z,31.85
2018-09-05T15:35:55.283Z,31.63
2018-09-05T15:38:24.304Z,31.65
2018-09-05T15:40:53.069Z,31.68
2018-09-05T15:43:22.357Z,31.47
2018-09-05T15:45:51.619Z,31.17
2018-09-05T15:48:20.976Z,30.88
2018-09-05T15:50:49.654Z,30.57
2018-09-05T15:53:18.723Z,30.37
2018-09-05T15:55:48.415Z,30.42
2018-09-05T15:58:17.136Z,30.46
2018-09-05T16:00:46.180Z,30.23
2018-09-05T16:03:15.090Z,30.17
2018-09-05T16:05:44.224Z,30.19
2018-09-05T16:08:13.733Z,29.87
2018-09-05T16:10:42.490Z,29.67
2018-09-05T16:13:11.590Z,29.46
2018-09-05T16:15:40.833Z,29.18
2018-09-05T16:18:09.990Z,29.03
2018-09-05T16:20:38.730Z,28.90
2018-09-05T16:23:08.337Z,28.66
2018-09-05T16:25:37.646Z,28.52
2018-09-05T16:28:06.393Z,28.30
2018-09-05T16:30:35.149Z,28.24
2018-09-05T16:33:04.929Z,28.21
2018-09-05T16:35:33.670Z,28.07
2018-09-05T16:38:02.668Z,27.96
2018-09-05T16:40:31.414Z,27.79
2018-09-05T16:43:00.421Z,27.70
2018-09-05T16:45:29.415Z,27.64
2018-09-05T16:47:58.701Z,27.61
2018-09-05T16:50:27.411Z,27.50
2018-09-05T16:52:56.198Z,27.45
2018-09-05T16:55:24.934Z,27.40
2018-09-05T16:57:54.177Z,27.36
2018-09-05T17:00:22.850Z,27.30
2018-09-05T17:02:51.591Z,27.28
2018-09-05T17:05:20.603Z,27.20
2018-09-05T17:07:49.324Z,27.15
2018-09-05T17:10:18.681Z,27.13
2018-09-05T17:12:47.782Z,27.04
2018-09-05T17:15:16.838Z,26.97
2018-09-05T17:17:45.901Z,26.81
2018-09-05T17:20:14.855Z,26.72
2018-09-05T17:22:43.945Z,26.68
2018-09-05T17:25:15.788Z,26.66
2018-09-05T17:27:44.814Z,26.62
2018-09-05T17:30:13.765Z,26.53
2018-09-05T17:32:42.546Z,26.46
2018-09-05T17:35:11.724Z,26.37
2018-09-05T17:37:40.715Z,26.32
2018-09-05T17:40:09.499Z,26.30
2018-09-05T17:42:38.198Z,26.17
2018-09-05T17:45:07.202Z,26.08
2018-09-05T17:47:35.895Z,26.00
2018-09-05T17:50:04.591Z,25.92
2018-09-05T17:52:33.706Z,25.81
2018-09-05T17:55:02.407Z,25.70
2018-09-05T17:57:31.140Z,25.60
2018-09-05T18:00:00.676Z,25.48
2018-09-05T18:02:29.359Z,25.32
2018-09-05T18:04:58.443Z,25.20
2018-09-05T18:07:27.474Z,25.05
2018-09-05T18:09:56.268Z,24.91
2018-09-05T18:12:24.984Z,24.84
2018-09-05T18:14:53.850Z,24.75
2018-09-05T18:17:22.559Z,24.69
2018-09-05T18:19:51.776Z,24.62
2018-09-05T18:22:20.746Z,24.48
2018-09-05T18:24:49.786Z,24.42
2018-09-05T18:27:18.792Z,24.20
2018-09-05T18:29:47.808Z,24.13
2018-09-05T18:32:17.117Z,24.12
2018-09-05T18:34:46.098Z,24.02
2018-09-05T18:37:14.819Z,24.00
2018-09-05T18:39:43.594Z,23.94
2018-09-05T18:42:12.326Z,23.87
2018-09-05T18:44:41.836Z,23.79
2018-09-05T18:47:10.588Z,23.73
2018-09-05T18:49:39.283Z,23.63
2018-09-05T18:52:07.999Z,23.57
2018-09-05T18:54:37.536Z,23.52
2018-09-05T18:57:08.452Z,23.45
2018-09-05T18:59:37.532Z,23.36
2018-09-05T19:02:06.548Z,23.31
2018-09-05T19:04:35.554Z,23.30
2018-09-05T19:07:04.281Z,23.22
2018-09-05T19:09:33.088Z,23.21
2018-09-05T19:12:02.270Z,23.09
2018-09-05T19:14:30.974Z,23.05
2018-09-05T19:16:59.680Z,22.95
2018-09-05T19:19:28.450Z,22.82
2018-09-05T19:21:57.170Z,22.77
2018-09-05T19:24:26.230Z,22.73
2018-09-05T19:26:55.205Z,22.72
2018-09-05T19:29:23.937Z,22.66
2018-09-05T19:31:52.744Z,22.63
2018-09-05T19:34:22.141Z,22.62
2018-09-05T19:36:50.900Z,22.60
2018-09-05T19:39:20.143Z,22.56
2018-09-05T19:41:48.967Z,22.51
2018-09-05T19:44:18.022Z,22.46
2018-09-05T19:46:47.107Z,22.44
2018-09-05T19:49:16.231Z,22.40
2018-09-05T19:51:44.874Z,22.38
2018-09-05T19:54:13.633Z,22.35
2018-09-05T19:56:42.347Z,22.30
2018-09-05T19:59:11.091Z,22.24
2018-09-05T20:01:40.089Z,22.20
2018-09-05T20:04:09.052Z,22.10
2018-09-05T20:06:38.092Z,22.09
2018-09-05T20:09:07.756Z,22.01
2018-09-05T20:11:36.627Z,21.90
2018-09-05T20:14:05.649Z,21.84
2018-09-05T20:16:34.651Z,21.81
2018-09-05T20:19:03.896Z,21.76
2018-09-05T20:21:33.754Z,21.76
2018-09-05T20:24:02.954Z,21.74
2018-09-05T20:26:31.728Z,21.73
2018-09-05T20:29:00.514Z,21.70
2018-09-05T20:31:29.341Z,21.66
2018-09-05T20:33:58.802Z,21.67
2018-09-05T20:36:28.539Z,21.65
2018-09-05T20:38:57.270Z,21.63
2018-09-05T20:41:26.367Z,21.60
2018-09-05T20:43:55.477Z,21.59
2018-09-05T20:46:24.434Z,21.56
2018-09-05T20:48:53.219Z,21.48
2018-09-05T20:51:22.777Z,21.45
2018-09-05T20:53:51.575Z,21.43
2018-09-05T20:56:20.321Z,21.41
2018-09-05T20:58:49.560Z,21.41
2018-09-05T21:01:18.659Z,21.38
2018-09-05T21:03:47.916Z,21.35
2018-09-05T21:06:17.190Z,21.30
2018-09-05T21:08:52.498Z,21.27
2018-09-05T21:11:21.567Z,21.22
2018-09-05T21:13:50.451Z,21.17
2018-09-05T21:16:19.808Z,21.12
2018-09-05T21:18:49.133Z,21.09
2018-09-05T21:21:17.940Z,21.02
2018-09-05T21:23:46.680Z,20.98
2018-09-05T21:26:15.750Z,20.91
2018-09-05T21:28:44.514Z,20.85
2018-09-05T21:31:13.928Z,20.80
2018-09-05T21:33:42.718Z,20.78
2018-09-05T21:36:11.709Z,20.76
2018-09-05T21:38:40.457Z,20.72
2018-09-05T21:41:09.247Z,20.69
2018-09-05T21:43:38.048Z,20.63
2018-09-05T21:46:07.458Z,20.56
2018-09-05T21:48:36.202Z,20.52
2018-09-05T21:51:04.994Z,20.51
2018-09-05T21:53:33.972Z,20.44
2018-09-05T21:56:03.257Z,20.41
2018-09-05T21:58:35.015Z,20.37
2018-09-05T22:01:04.344Z,20.35
2018-09-05T22:03:33.128Z,20.30
2018-09-05T22:06:08.124Z,20.31
2018-09-05T22:08:37.260Z,20.30
2018-09-05T22:11:11.234Z,20.28
2018-09-05T22:13:40.019Z,20.28
2018-09-05T22:16:09.063Z,20.22
2018-09-05T22:18:38.768Z,20.19
2018-09-05T22:21:07.672Z,20.16
2018-09-05T22:23:36.684Z,20.16
2018-09-05T22:26:05.486Z,20.15
2018-09-05T22:28:34.891Z,20.12
2018-09-05T22:31:03.906Z,20.09
2018-09-05T22:33:33.491Z,20.08
2018-09-05T22:36:02.758Z,20.05
2018-09-05T22:38:31.547Z,20.03
2018-09-05T22:41:00.289Z,20.01
2018-09-05T22:43:40.463Z,19.99
2018-09-05T22:46:20.845Z,19.95
2018-09-05T22:49:01.155Z,19.92
2018-09-05T22:52:13.347Z,19.88
2018-09-05T22:56:59.660Z,19.83
2018-09-05T23:00:22.151Z,19.77
2018-09-05T23:03:59.311Z,19.70
2018-09-05T23:08:40.829Z,19.65
2018-09-05T23:11:56.183Z,19.53
2018-09-05T23:14:36.743Z,19.48
2018-09-05T23:17:16.594Z,19.45
2018-09-05T23:20:17.156Z,19.40
2018-09-05T23:22:57.338Z,19.33
2018-09-05T23:25:26.157Z,19.28
2018-09-05T23:27:55.289Z,19.25
2018-09-05T23:30:24.048Z,19.20
2018-09-05T23:32:52.857Z,19.13
2018-09-05T23:35:21.824Z,19.09
2018-09-05T23:37:50.626Z,19.03
2018-09-05T23:40:19.365Z,19.01
2018-09-05T23:42:48.118Z,18.99
2018-09-05T23:45:16.884Z,18.94
2018-09-05T23:47:45.613Z,18.91
2018-09-05T23:50:14.389Z,18.87
2018-09-05T23:52:43.445Z,18.85
2018-09-05T23:55:13.033Z,18.84
2018-09-05T23:57:42.753Z,18.86
